Time;durP1;ratioP1;P1;durP2;ratioP2;P2;SDS_P1;SDS_P2;PMS_P1;PMS_P2;Temp;Humidity;BMP_temperature;BMP_pressure;BME280_temperature;BME280_humidity;BME280_pressure;Samples;Min_cycle;Max_cycle;Signal;HPM_P1;HPM_P2
2021/05/17 00:03:24;;;;;;;;;;;8.30;99.90;;;;;;10514587;28;20009;-70
2021/05/17 00:08:26;;;;;;;;;;;8.30;99.90;;;;;;10500575;28;20022;-70
2021/05/17 00:13:28;;;;;;;;;;;8.30;99.90;;;;;;10498167;28;20019;-70
2021/05/17 00:18:29;;;;;;;;;;;8.20;99.90;;;;;;10498382;28;20011;-70
2021/05/17 00:23:31;;;;;;;;;;;8.20;99.90;;;;;;10519956;28;20022;-70
2021/05/17 00:28:33;;;;;;;;;;;8.10;99.90;;;;;;10505266;28;19938;-70
2021/05/17 00:33:35;;;;;;;;;;;8.30;99.90;;;;;;10517315;28;19924;-70
2021/05/17 00:38:37;;;;;;;;;;;8.40;99.90;;;;;;10503276;28;20307;-70
2021/05/17 00:43:39;;;;;;;;;;;8.30;99.90;;;;;;10489430;28;19971;-70
2021/05/17 00:48:41;;;;;;;;;;;8.20;99.90;;;;;;10488373;28;20019;-70
2021/05/17 00:53:43;;;;;;;;;;;8.20;99.90;;;;;;10515039;28;20019;-70
2021/05/17 00:58:45;;;;;;;;;;;8.40;99.90;;;;;;10501135;28;20019;-70
2021/05/17 01:03:47;;;;;;;;;;;8.50;99.90;;;;;;10523541;28;19991;-70
2021/05/17 01:08:57;;;;;;;;;;;8.50;99.90;;;;;;10523561;28;20035;-70
2021/05/17 01:14:00;;;;;;;;;;;8.50;99.90;;;;;;10499205;28;19935;-70
2021/05/17 01:19:04;;;;;;;;;;;8.40;99.90;;;;;;10487137;28;20023;-70
2021/05/17 01:24:07;;;;;;;;;;;8.40;99.90;;;;;;10512013;28;19974;-70
2021/05/17 01:29:08;;;;;;;;;;;8.50;99.90;;;;;;10499155;28;20030;-71
2021/05/17 01:34:14;;;;;;;;;;;8.50;99.90;;;;;;10510243;28;19928;-70
2021/05/17 01:39:16;;;;;;;;;;;8.40;99.90;;;;;;10496066;28;20015;-70
2021/05/17 01:44:22;;;;;;;;;;;8.40;99.90;;;;;;10493133;28;20007;-70
2021/05/17 01:49:25;;;;;;;;;;;8.30;99.90;;;;;;10500918;28;20042;-70
2021/05/17 01:54:31;;;;;;;;;;;8.50;99.90;;;;;;10512166;28;19977;-70
2021/05/17 01:59:33;;;;;;;;;;;8.60;99.90;;;;;;10501212;28;19931;-71
2021/05/17 02:04:35;;;;;;;;;;;8.50;99.90;;;;;;10502577;28;19985;-70
2021/05/17 02:09:37;;;;;;;;;;;8.50;99.90;;;;;;10519561;28;19947;-71
2021/05/17 02:14:39;;;;;;;;;;;8.70;99.90;;;;;;10495300;28;19924;-70
2021/05/17 02:19:41;;;;;;;;;;;8.70;99.90;;;;;;10502439;28;20007;-70
2021/05/17 02:24:44;;;;;;;;;;;8.70;99.90;;;;;;10492605;28;20011;-70
2021/05/17 02:29:46;;;;;;;;;;;8.70;99.90;;;;;;10505343;28;19967;-71
2021/05/17 02:34:48;;;;;;;;;;;8.80;99.90;;;;;;10519462;28;19956;-70
2021/05/17 02:39:51;;;;;;;;;;;8.80;99.90;;;;;;10537794;28;19972;-71
2021/05/17 02:44:53;;;;;;;;;;;8.90;99.90;;;;;;10506374;28;19983;-71
2021/05/17 02:49:54;;;;;;;;;;;8.90;99.90;;;;;;10516181;28;19971;-70
2021/05/17 02:55:09;;;;;;;;;;;8.80;99.90;;;;;;10541627;28;20018;-70
2021/05/17 03:00:13;;;;;;;;;;;8.80;99.90;;;;;;10492480;28;20015;-71
2021/05/17 03:05:15;;;;;;;;;;;8.80;99.90;;;;;;10514326;28;20007;-71
2021/05/17 03:10:17;;;;;;;;;;;8.80;99.90;;;;;;10513400;28;19950;-71
2021/05/17 03:15:20;;;;;;;;;;;8.70;99.90;;;;;;10505252;28;20019;-71
2021/05/17 03:20:22;;;;;;;;;;;8.60;99.90;;;;;;10494872;28;20384;-70
2021/05/17 03:25:31;;;;;;;;;;;8.40;99.90;;;;;;10500255;28;19967;-70
2021/05/17 03:30:33;;;;;;;;;;;8.30;99.90;;;;;;10532724;28;19975;-70
2021/05/17 03:35:35;;;;;;;;;;;8.20;99.90;;;;;;10528122;28;20015;-70
2021/05/17 03:40:38;;;;;;;;;;;8.40;99.90;;;;;;10532073;28;19978;-70
2021/05/17 03:45:40;;;;;;;;;;;8.50;99.90;;;;;;10513956;28;19931;-70
2021/05/17 03:50:42;;;;;;;;;;;8.70;99.90;;;;;;10509517;28;19924;-70
2021/05/17 03:55:44;;;;;;;;;;;8.60;99.90;;;;;;10515553;28;19929;-70
2021/05/17 04:00:46;;;;;;;;;;;8.70;99.90;;;;;;10500017;28;20022;-70
2021/05/17 04:16:10;;;;;;;;;;;8.90;99.90;;;;;;10533878;27;19924;-70
2021/05/17 04:21:12;;;;;;;;;;;8.90;99.90;;;;;;10486809;28;20017;-71
2021/05/17 04:26:14;;;;;;;;;;;8.80;99.90;;;;;;10475313;28;19928;-70
2021/05/17 04:31:15;;;;;;;;;;;9.00;99.90;;;;;;10525317;28;19971;-70
2021/05/17 04:36:17;;;;;;;;;;;9.20;99.90;;;;;;10509194;28;20019;-70
2021/05/17 04:41:19;;;;;;;;;;;9.50;99.90;;;;;;10498751;28;20015;-70
2021/05/17 04:46:21;;;;;;;;;;;11.10;99.90;;;;;;10488187;28;19970;-71
2021/05/17 04:51:23;;;;;;;;;;;11.30;99.90;;;;;;10513374;28;20322;-70
2021/05/17 04:56:25;;;;;;;;;;;11.00;99.90;;;;;;10510890;28;19935;-71
2021/05/17 05:01:27;;;;;;;;;;;11.20;99.90;;;;;;10488798;28;19928;-70
2021/05/17 05:06:29;;;;;;;;;;;12.30;99.90;;;;;;10491884;28;19931;-70
2021/05/17 05:11:31;;;;;;;;;;;11.60;99.90;;;;;;10488494;28;20329;-71
2021/05/17 05:16:33;;;;;;;;;;;11.30;99.90;;;;;;10494774;28;20016;-71
2021/05/17 05:21:35;;;;;;;;;;;11.30;99.90;;;;;;10476698;28;20427;-70
2021/05/17 05:26:53;;;;;;;;;;;11.40;99.90;;;;;;10492997;28;19925;-71
2021/05/17 05:36:59;;;;;;;;;;;11.40;99.90;;;;;;10495770;28;20432;-70
2021/05/17 05:42:02;;;;;;;;;;;11.30;99.90;;;;;;10489388;28;20014;-70
2021/05/17 05:47:04;;;;;;;;;;;11.60;99.90;;;;;;10488786;28;19964;-70
2021/05/17 05:52:06;;;;;;;;;;;11.90;99.90;;;;;;10519009;28;20102;-70
2021/05/17 05:57:08;;;;;;;;;;;11.70;99.90;;;;;;10490725;28;19964;-70
2021/05/17 06:02:10;;;;;;;;;;;11.70;99.90;;;;;;10507916;28;20370;-70
2021/05/17 06:07:12;;;;;;;;;;;12.70;99.90;;;;;;10508279;28;19924;-70
2021/05/17 06:12:14;;;;;;;;;;;12.90;99.90;;;;;;10488762;28;19955;-70
2021/05/17 06:17:16;;;;;;;;;;;13.40;99.90;;;;;;10519731;28;20023;-71
2021/05/17 06:22:18;;;;;;;;;;;13.50;99.90;;;;;;10502275;28;20035;-70
2021/05/17 06:27:21;;;;;;;;;;;14.00;99.90;;;;;;10492981;28;20022;-71
2021/05/17 06:32:23;;;;;;;;;;;14.30;99.90;;;;;;10469538;28;20024;-70
2021/05/17 06:37:25;;;;;;;;;;;13.70;99.90;;;;;;10472875;28;20019;-70
2021/05/17 06:42:26;;;;;;;;;;;13.10;99.90;;;;;;10484105;28;20014;-71
2021/05/17 06:47:28;;;;;;;;;;;13.40;99.90;;;;;;10500104;28;20018;-71
2021/05/17 06:52:30;;;;;;;;;;;13.70;99.90;;;;;;10502851;28;19924;-71
2021/05/17 07:02:38;;;;;;;;;;;15.10;99.90;;;;;;10510743;28;19924;-71
2021/05/17 07:12:44;;;;;;;;;;;15.00;99.90;;;;;;10504387;28;19928;-71
2021/05/17 07:17:46;;;;;;;;;;;14.40;99.90;;;;;;10498949;28;20011;-71
2021/05/17 07:28:08;;;;;;;;;;;14.10;99.90;;;;;;10494408;28;20887;-71
2021/05/17 07:33:09;;;;;;;;;;;14.00;99.90;;;;;;10520002;28;19924;-71
2021/05/17 07:38:11;;;;;;;;;;;14.20;99.90;;;;;;10504775;28;20280;-71
2021/05/17 07:43:13;;;;;;;;;;;14.20;99.90;;;;;;10492194;28;20015;-71
2021/05/17 07:48:20;;;;;;;;;;;14.40;99.90;;;;;;10507151;28;20022;-71
2021/05/17 07:53:22;;;;;;;;;;;15.40;99.90;;;;;;10506746;28;20011;-64
2021/05/17 07:58:23;;;;;;;;;;;15.80;99.90;;;;;;10498926;28;20047;-63
2021/05/17 08:03:25;;;;;;;;;;;16.20;99.90;;;;;;10492920;28;19954;-64
2021/05/17 08:08:33;;;;;;;;;;;16.30;99.90;;;;;;10491419;28;19931;-63
2021/05/17 08:13:36;;;;;;;;;;;17.40;99.90;;;;;;10525018;28;19931;-64
2021/05/17 08:18:53;;;;;;;;;;;18.20;99.40;;;;;;10504031;28;20022;-64
2021/05/17 08:23:57;;;;;;;;;;;17.80;95.10;;;;;;10481810;28;20311;-64
2021/05/17 08:28:58;;;;;;;;;;;16.20;98.40;;;;;;10481768;28;19974;-64
2021/05/17 08:34:00;;;;;;;;;;;15.30;99.90;;;;;;10509127;28;20363;-64
2021/05/17 08:39:04;;;;;;;;;;;15.20;99.90;;;;;;10521365;28;19924;-64
2021/05/17 08:44:06;;;;;;;;;;;14.90;99.90;;;;;;10509574;28;19931;-65
2021/05/17 08:49:07;;;;;;;;;;;14.50;99.90;;;;;;10520354;28;19934;-65
2021/05/17 08:54:10;;;;;;;;;;;14.00;99.90;;;;;;10529492;28;20015;-64
2021/05/17 08:59:19;;;;;;;;;;;13.20;99.90;;;;;;10494354;28;19931;-65
2021/05/17 09:04:21;;;;;;;;;;;12.80;99.90;;;;;;10493385;28;20003;-64
2021/05/17 09:09:30;;;;;;;;;;;12.50;99.90;;;;;;10490835;28;19963;-64
2021/05/17 09:14:33;;;;;;;;;;;12.20;99.90;;;;;;10530127;28;19951;-65
2021/05/17 09:19:35;;;;;;;;;;;12.20;99.90;;;;;;10488724;28;20031;-65
2021/05/17 09:24:37;;;;;;;;;;;12.20;99.90;;;;;;10499969;28;20381;-65
2021/05/17 09:29:41;;;;;;;;;;;12.30;99.90;;;;;;10487962;28;20018;-65
2021/05/17 09:34:44;;;;;;;;;;;11.90;99.90;;;;;;10487009;28;19928;-65
2021/05/17 09:39:47;;;;;;;;;;;11.70;99.90;;;;;;10486009;28;19970;-65
2021/05/17 09:44:49;;;;;;;;;;;12.00;99.90;;;;;;10487970;28;20396;-65
2021/05/17 09:49:52;;;;;;;;;;;12.30;99.90;;;;;;10487646;28;20669;-65
2021/05/17 09:55:05;;;;;;;;;;;12.60;99.90;;;;;;10487685;28;19999;-65
2021/05/17 10:00:09;;;;;;;;;;;13.00;99.90;;;;;;10486228;28;20422;-65
2021/05/17 10:05:16;;;;;;;;;;;13.20;99.90;;;;;;10487446;28;20442;-65
2021/05/17 10:10:20;;;;;;;;;;;12.90;99.90;;;;;;10487750;28;20015;-65
2021/05/17 10:15:23;;;;;;;;;;;12.80;99.90;;;;;;10486969;28;20019;-65
2021/05/17 10:20:43;;;;;;;;;;;13.00;99.90;;;;;;10487500;28;20017;-65
2021/05/17 10:25:45;;;;;;;;;;;14.30;99.90;;;;;;10486812;28;19935;-65
2021/05/17 10:30:47;;;;;;;;;;;15.40;99.90;;;;;;10486813;28;19971;-65
2021/05/17 10:35:50;;;;;;;;;;;16.10;99.90;;;;;;10486560;28;19959;-65
2021/05/17 10:40:58;;;;;;;;;;;16.10;99.90;;;;;;10486283;28;19974;-65
2021/05/17 10:51:52;;;;;;;;;;;15.90;99.90;;;;;;10495380;28;19924;-65
2021/05/17 10:57:04;;;;;;;;;;;16.10;99.90;;;;;;10493016;28;20410;-65
2021/05/17 11:02:09;;;;;;;;;;;15.70;99.90;;;;;;10494522;28;19994;-66
2021/05/17 11:07:11;;;;;;;;;;;15.30;99.90;;;;;;10493074;28;19924;-65
2021/05/17 11:12:25;;;;;;;;;;;15.30;99.90;;;;;;10493273;28;19931;-66
2021/05/17 11:17:27;;;;;;;;;;;15.40;99.90;;;;;;10493022;28;19924;-65
2021/05/17 11:22:50;;;;;;;;;;;15.50;99.90;;;;;;10493191;28;20015;-65
2021/05/17 11:27:52;;;;;;;;;;;15.60;99.90;;;;;;10491620;28;19978;-66
2021/05/17 11:33:10;;;;;;;;;;;15.80;99.90;;;;;;10492959;28;19970;-66
2021/05/17 11:38:15;;;;;;;;;;;16.10;99.90;;;;;;10492846;28;20411;-65
2021/05/17 11:43:18;;;;;;;;;;;16.20;99.90;;;;;;10491453;28;20018;-65
2021/05/17 11:48:25;;;;;;;;;;;16.30;99.90;;;;;;10492210;28;20370;-65
2021/05/17 11:53:27;;;;;;;;;;;16.30;99.90;;;;;;10491615;28;20363;-65
2021/05/17 11:58:28;;;;;;;;;;;16.30;99.90;;;;;;10491064;28;19996;-67
2021/05/17 12:03:39;;;;;;;;;;;16.80;99.90;;;;;;10492238;28;20015;-67
2021/05/17 12:08:41;;;;;;;;;;;17.70;99.90;;;;;;10491508;28;20019;-67
2021/05/17 12:13:46;;;;;;;;;;;18.30;96.60;;;;;;10491127;28;19963;-67
2021/05/17 12:18:54;;;;;;;;;;;19.00;94.70;;;;;;10490268;28;19932;-67
2021/05/17 12:23:56;;;;;;;;;;;18.80;88.70;;;;;;10490085;28;20026;-67
2021/05/17 12:29:02;;;;;;;;;;;18.40;85.10;;;;;;10490304;28;20081;-67
2021/05/17 12:34:07;;;;;;;;;;;18.10;82.60;;;;;;10490125;28;19943;-67
2021/05/17 12:39:16;;;;;;;;;;;18.00;84.70;;;;;;10489298;28;20023;-67
2021/05/17 12:44:29;;;;;;;;;;;18.20;84.90;;;;;;10489820;28;20019;-67
2021/05/17 12:49:47;;;;;;;;;;;17.90;86.50;;;;;;10489492;28;20349;-67
2021/05/17 12:55:07;;;;;;;;;;;17.10;93.20;;;;;;10489040;28;19931;-66
2021/05/17 13:00:09;;;;;;;;;;;15.80;97.30;;;;;;10489579;28;19968;-66
2021/05/17 13:05:11;;;;;;;;;;;15.50;99.90;;;;;;10487142;28;19924;-66
2021/05/17 13:10:13;;;;;;;;;;;15.80;99.90;;;;;;10487908;28;19955;-66
2021/05/17 13:15:18;;;;;;;;;;;16.00;99.60;;;;;;10488873;28;19924;-66
2021/05/17 13:20:21;;;;;;;;;;;15.20;99.90;;;;;;10489235;28;19955;-66
2021/05/17 13:30:51;;;;;;;;;;;14.50;99.90;;;;;;10488473;28;19978;-66
2021/05/17 13:35:54;;;;;;;;;;;14.80;99.90;;;;;;10488410;28;20427;-66
2021/05/17 13:41:01;;;;;;;;;;;15.00;99.90;;;;;;10487607;28;19925;-66
2021/05/17 13:46:04;;;;;;;;;;;14.70;99.90;;;;;;10488328;28;19960;-66
2021/05/17 13:51:06;;;;;;;;;;;15.10;99.90;;;;;;10486653;28;19932;-65
2021/05/17 13:56:08;;;;;;;;;;;15.80;99.90;;;;;;10487645;28;20424;-66
2021/05/17 14:01:10;;;;;;;;;;;15.80;99.90;;;;;;10487070;28;20343;-66
2021/05/17 14:06:12;;;;;;;;;;;15.60;99.90;;;;;;10487147;28;19970;-66
2021/05/17 14:11:13;;;;;;;;;;;15.30;99.90;;;;;;10487163;28;19990;-65
2021/05/17 14:16:15;;;;;;;;;;;15.40;99.90;;;;;;10487468;28;19924;-66
2021/05/17 14:21:17;;;;;;;;;;;15.30;99.90;;;;;;10486547;28;19931;-66
2021/05/17 14:26:19;;;;;;;;;;;15.60;99.90;;;;;;10495692;28;20363;-66
2021/05/17 14:31:21;;;;;;;;;;;15.40;99.90;;;;;;10495476;28;20195;-66
2021/05/17 14:36:22;;;;;;;;;;;15.20;99.90;;;;;;10495517;28;20327;-66
2021/05/17 14:41:25;;;;;;;;;;;15.50;99.90;;;;;;10494734;28;20440;-65
2021/05/17 14:46:27;;;;;;;;;;;15.70;99.90;;;;;;10494724;28;19978;-66
2021/05/17 14:51:28;;;;;;;;;;;15.60;99.90;;;;;;10492215;28;19924;-66
2021/05/17 14:56:30;;;;;;;;;;;15.60;99.90;;;;;;10494644;28;19943;-66
2021/05/17 15:01:32;;;;;;;;;;;15.50;99.90;;;;;;10493613;28;19986;-66
2021/05/17 15:06:35;;;;;;;;;;;15.00;99.90;;;;;;10493112;28;20023;-66
2021/05/17 15:11:37;;;;;;;;;;;15.10;99.90;;;;;;10493453;28;19935;-66
2021/05/17 15:16:39;;;;;;;;;;;15.40;99.90;;;;;;10492639;28;19986;-66
2021/05/17 15:21:41;;;;;;;;;;;15.20;99.90;;;;;;10492458;28;19970;-66
2021/05/17 15:26:43;;;;;;;;;;;14.90;99.90;;;;;;10492059;28;19990;-66
2021/05/17 15:31:45;;;;;;;;;;;14.50;99.90;;;;;;10491346;28;19968;-66
2021/05/17 15:36:47;;;;;;;;;;;14.40;99.90;;;;;;10490481;28;20368;-65
2021/05/17 15:41:49;;;;;;;;;;;14.50;99.90;;;;;;10490068;28;19924;-66
2021/05/17 15:46:53;;;;;;;;;;;14.50;99.90;;;;;;10490841;28;20027;-66
2021/05/17 15:51:55;;;;;;;;;;;14.50;99.90;;;;;;10490897;28;19928;-66
2021/05/17 15:56:56;;;;;;;;;;;14.70;99.90;;;;;;10490694;28;20441;-66
2021/05/17 16:01:58;;;;;;;;;;;15.00;99.90;;;;;;10488924;28;20019;-65
2021/05/17 16:07:00;;;;;;;;;;;15.00;99.90;;;;;;10489488;28;19969;-65
2021/05/17 16:12:05;;;;;;;;;;;14.80;99.90;;;;;;10489013;28;19971;-66
2021/05/17 16:22:12;;;;;;;;;;;15.10;99.90;;;;;;10489947;28;19932;-66
2021/05/17 16:27:14;;;;;;;;;;;15.30;99.90;;;;;;10510129;28;19929;-66
2021/05/17 16:32:18;;;;;;;;;;;15.10;99.90;;;;;;10489511;28;20338;-65
2021/05/17 16:37:20;;;;;;;;;;;14.70;99.90;;;;;;10488809;28;19975;-66
2021/05/17 16:42:23;;;;;;;;;;;14.40;99.90;;;;;;10487467;28;20015;-65
2021/05/17 16:47:25;;;;;;;;;;;14.30;99.90;;;;;;10488661;28;19928;-65
2021/05/17 16:52:28;;;;;;;;;;;14.30;99.90;;;;;;10487993;28;20007;-65
2021/05/17 16:57:30;;;;;;;;;;;14.20;99.90;;;;;;10488111;28;19932;-65
2021/05/17 17:02:32;;;;;;;;;;;14.20;99.90;;;;;;10487690;28;20047;-66
2021/05/17 17:07:34;;;;;;;;;;;14.00;99.90;;;;;;10471811;28;20011;-65
2021/05/17 17:12:35;;;;;;;;;;;13.90;99.90;;;;;;10487038;28;20252;-65
2021/05/17 17:17:37;;;;;;;;;;;14.00;99.90;;;;;;10520400;28;19931;-66
2021/05/17 17:22:39;;;;;;;;;;;14.00;99.90;;;;;;10487071;28;19934;-65
2021/05/17 17:27:41;;;;;;;;;;;14.10;99.90;;;;;;10487234;28;20054;-65
2021/05/17 17:32:47;;;;;;;;;;;14.50;99.90;;;;;;10487038;28;20471;-65
2021/05/17 17:37:49;;;;;;;;;;;14.70;99.90;;;;;;10486903;28;19935;-65
2021/05/17 17:42:50;;;;;;;;;;;14.90;99.90;;;;;;10486903;28;20389;-65
2021/05/17 17:47:52;;;;;;;;;;;14.70;99.90;;;;;;10487453;28;19981;-65
2021/05/17 17:52:54;;;;;;;;;;;14.50;99.90;;;;;;10486445;28;20019;-65
2021/05/17 17:57:56;;;;;;;;;;;14.50;99.90;;;;;;10485728;28;19924;-65
2021/05/17 18:02:58;;;;;;;;;;;14.30;99.90;;;;;;10486929;28;19928;-65
2021/05/17 18:07:59;;;;;;;;;;;14.00;99.90;;;;;;10508682;28;19924;-65
2021/05/17 18:13:01;;;;;;;;;;;13.90;99.90;;;;;;10486197;28;19925;-65
2021/05/17 18:18:03;;;;;;;;;;;13.90;99.90;;;;;;10486152;28;20395;-65
2021/05/17 18:23:07;;;;;;;;;;;13.90;99.90;;;;;;10485421;28;20015;-65
2021/05/17 18:28:09;;;;;;;;;;;13.60;99.90;;;;;;10517604;28;19924;-65
2021/05/17 18:33:17;;;;;;;;;;;13.40;99.90;;;;;;10485563;28;20303;-65
2021/05/17 18:38:22;;;;;;;;;;;13.20;99.90;;;;;;10485645;28;20312;-65
2021/05/17 18:43:44;;;;;;;;;;;13.00;99.90;;;;;;10484598;28;20019;-65
2021/05/17 18:48:46;;;;;;;;;;;12.80;99.90;;;;;;10485875;28;19952;-65
2021/05/17 18:53:49;;;;;;;;;;;12.80;99.90;;;;;;10484530;28;20400;-65
2021/05/17 18:58:50;;;;;;;;;;;12.50;99.90;;;;;;10485130;28;19972;-65
2021/05/17 19:03:52;;;;;;;;;;;12.40;99.90;;;;;;10484116;28;20007;-65
2021/05/17 19:08:55;;;;;;;;;;;12.20;99.90;;;;;;10488322;28;20011;-65
2021/05/17 19:13:57;;;;;;;;;;;12.30;99.90;;;;;;10491243;28;19964;-65
2021/05/17 19:18:58;;;;;;;;;;;12.20;99.90;;;;;;10492713;28;19978;-65
2021/05/17 19:24:00;;;;;;;;;;;12.10;99.90;;;;;;10491489;28;20018;-65
2021/05/17 19:29:02;;;;;;;;;;;12.00;99.90;;;;;;10507425;28;19971;-65
2021/05/17 19:34:04;;;;;;;;;;;11.90;99.90;;;;;;10491169;28;20015;-65
2021/05/17 19:39:07;;;;;;;;;;;11.80;99.90;;;;;;10491932;28;20011;-65
2021/05/17 19:44:09;;;;;;;;;;;11.80;99.90;;;;;;10487548;28;19963;-65
2021/05/17 19:49:13;;;;;;;;;;;11.90;99.90;;;;;;10491092;28;20027;-65
2021/05/17 19:54:15;;;;;;;;;;;11.80;99.90;;;;;;10490889;28;20046;-65
2021/05/17 19:59:17;;;;;;;;;;;11.80;99.90;;;;;;10491385;28;20288;-65
2021/05/17 20:04:19;;;;;;;;;;;11.60;99.90;;;;;;10490571;28;19924;-65
2021/05/17 20:09:21;;;;;;;;;;;11.40;99.90;;;;;;10489153;28;20023;-65
2021/05/17 20:14:23;;;;;;;;;;;11.30;99.90;;;;;;10491417;28;19924;-65
2021/05/17 20:19:26;;;;;;;;;;;11.10;99.90;;;;;;10489322;28;20464;-65
2021/05/17 20:24:28;;;;;;;;;;;11.00;99.90;;;;;;10490240;28;19975;-65
2021/05/17 20:29:30;;;;;;;;;;;10.80;99.90;;;;;;10491302;28;20011;-65
2021/05/17 20:39:37;;;;;;;;;;;10.60;99.90;;;;;;10490378;28;19968;-65
2021/05/17 20:44:40;;;;;;;;;;;10.50;99.90;;;;;;10490265;28;20015;-65
2021/05/17 20:49:42;;;;;;;;;;;10.30;99.90;;;;;;10488409;28;20039;-65
2021/05/17 20:54:48;;;;;;;;;;;10.10;99.90;;;;;;10489979;28;19924;-65
2021/05/17 20:59:49;;;;;;;;;;;10.00;99.90;;;;;;10490480;28;19986;-65
2021/05/17 21:04:51;;;;;;;;;;;9.90;99.90;;;;;;10488914;28;19990;-65
2021/05/17 21:09:53;;;;;;;;;;;9.90;99.90;;;;;;10488569;28;20423;-65
2021/05/17 21:14:55;;;;;;;;;;;9.80;99.90;;;;;;10498524;28;19924;-65
2021/05/17 21:19:57;;;;;;;;;;;9.80;99.90;;;;;;10492489;28;19982;-65
2021/05/17 21:25:00;;;;;;;;;;;9.70;99.90;;;;;;10512357;28;20372;-66
2021/05/17 21:30:02;;;;;;;;;;;9.80;99.90;;;;;;10492392;28;20023;-70
2021/05/17 21:35:05;;;;;;;;;;;9.80;99.90;;;;;;10527387;28;20045;-70
2021/05/17 21:40:07;;;;;;;;;;;9.70;99.90;;;;;;10524311;28;19971;-70
2021/05/17 21:45:12;;;;;;;;;;;9.60;99.90;;;;;;10493124;28;20007;-70
2021/05/17 21:50:15;;;;;;;;;;;9.50;99.90;;;;;;10494777;28;20007;-69
2021/05/17 21:55:19;;;;;;;;;;;9.40;99.90;;;;;;10499225;28;20372;-70
2021/05/17 22:00:31;;;;;;;;;;;9.40;99.90;;;;;;10495093;28;19928;-70
2021/05/17 22:05:35;;;;;;;;;;;9.50;99.90;;;;;;10503030;28;19928;-70
2021/05/17 22:10:36;;;;;;;;;;;9.50;99.90;;;;;;10492331;28;20003;-70
2021/05/17 22:15:50;;;;;;;;;;;9.50;99.90;;;;;;10523852;28;19968;-70
2021/05/17 22:20:54;;;;;;;;;;;9.50;99.90;;;;;;10490739;28;20007;-70
2021/05/17 22:25:56;;;;;;;;;;;9.50;99.90;;;;;;10514029;28;19990;-70
2021/05/17 22:31:01;;;;;;;;;;;9.50;99.90;;;;;;10489729;28;19925;-70
2021/05/17 22:36:04;;;;;;;;;;;9.50;99.90;;;;;;10498715;28;20010;-70
2021/05/17 22:41:07;;;;;;;;;;;9.40;99.90;;;;;;10511044;28;19924;-71
2021/05/17 22:46:09;;;;;;;;;;;9.40;99.90;;;;;;10499011;28;19964;-70
2021/05/17 22:51:10;;;;;;;;;;;9.30;99.90;;;;;;10510889;28;20032;-70
2021/05/17 22:56:12;;;;;;;;;;;9.20;99.90;;;;;;10532965;28;20292;-70
2021/05/17 23:01:14;;;;;;;;;;;9.30;99.90;;;;;;10514882;28;20738;-70
2021/05/17 23:06:16;;;;;;;;;;;9.30;99.90;;;;;;10517907;28;19999;-70
2021/05/17 23:11:19;;;;;;;;;;;9.20;99.90;;;;;;10509994;28;19975;-71
2021/05/17 23:16:21;;;;;;;;;;;9.20;99.90;;;;;;10512822;28;20007;-71
2021/05/17 23:21:28;;;;;;;;;;;9.20;99.90;;;;;;10506414;28;20018;-70
2021/05/17 23:31:51;;;;;;;;;;;9.10;99.90;;;;;;10512405;28;20015;-70
2021/05/17 23:36:53;;;;;;;;;;;9.30;99.90;;;;;;10524697;28;20462;-72
2021/05/17 23:41:54;;;;;;;;;;;9.50;99.90;;;;;;10511760;28;19924;-72
2021/05/17 23:46:56;;;;;;;;;;;9.60;99.90;;;;;;10505549;28;19963;-71
2021/05/17 23:51:58;;;;;;;;;;;9.70;99.90;;;;;;10520387;28;20015;-71
2021/05/17 23:57:00;;;;;;;;;;;9.70;99.90;;;;;;10491933;28;19924;-71
